createdAt,value
2023-01-22T00:00:01.147Z,22.00
2023-01-22T00:02:28.934Z,22.10
2023-01-22T00:04:56.747Z,22.10
2023-01-22T00:07:24.495Z,22.10
2023-01-22T00:09:52.159Z,22.20
2023-01-22T00:12:19.805Z,22.20
2023-01-22T00:14:49.542Z,22.30
2023-01-22T00:17:18.576Z,22.30
2023-01-22T00:19:46.256Z,22.30
2023-01-22T00:22:13.962Z,22.30
2023-01-22T00:24:41.650Z,22.40
2023-01-22T00:27:09.331Z,22.40
2023-01-22T00:29:37.031Z,22.50
2023-01-22T00:32:05.041Z,22.60
2023-01-22T00:34:34.128Z,22.70
2023-01-22T00:37:01.806Z,22.70
2023-01-22T00:39:29.494Z,22.80
2023-01-22T00:41:57.161Z,22.90
2023-01-22T00:44:24.853Z,22.90
2023-01-22T00:46:53.624Z,23.00
2023-01-22T00:49:21.280Z,23.00
2023-01-22T00:51:50.297Z,23.00
2023-01-22T00:54:18.641Z,23.10
2023-01-22T00:56:46.364Z,23.10
2023-01-22T00:59:14.134Z,23.10
2023-01-22T01:01:42.014Z,23.20
2023-01-22T01:04:09.773Z,23.20
2023-01-22T01:06:37.436Z,23.20
2023-01-22T01:09:06.625Z,23.20
2023-01-22T01:11:36.554Z,23.20
2023-01-22T01:14:04.576Z,23.30
2023-01-22T01:16:32.538Z,23.30
2023-01-22T01:19:00.718Z,23.40
2023-01-22T01:21:28.534Z,23.40
2023-01-22T01:23:56.378Z,23.40
2023-01-22T01:26:25.681Z,23.50
2023-01-22T01:28:53.470Z,23.50
2023-01-22T01:31:22.274Z,23.60
2023-01-22T01:33:50.100Z,23.60
2023-01-22T01:36:30.717Z,23.70
2023-01-22T01:39:06.829Z,23.70
2023-01-22T01:41:35.974Z,23.80
2023-01-22T01:44:10.910Z,23.90
2023-01-22T01:46:41.246Z,23.90
2023-01-22T01:49:11.943Z,24.00
2023-01-22T01:51:39.629Z,24.00
2023-01-22T01:54:07.323Z,24.00
2023-01-22T01:56:38.765Z,24.10
2023-01-22T01:59:08.627Z,24.20
2023-01-22T02:01:36.306Z,24.20
2023-01-22T02:04:04.056Z,24.20
2023-01-22T02:06:31.766Z,24.30
2023-01-22T02:09:00.433Z,24.30
2023-01-22T02:11:28.203Z,24.30
2023-01-22T02:13:58.840Z,24.40
2023-01-22T02:16:28.132Z,24.40
2023-01-22T02:18:56.269Z,24.40
2023-01-22T02:21:38.419Z,24.50
2023-01-22T02:24:06.574Z,24.60
2023-01-22T02:26:34.269Z,24.60
2023-01-22T02:29:01.961Z,24.60
2023-01-22T02:31:31.637Z,24.60
2023-01-22T02:34:01.773Z,24.70
2023-01-22T02:36:31.224Z,24.80
2023-01-22T02:39:00.281Z,24.80
2023-01-22T02:41:27.980Z,24.80
2023-01-22T02:43:55.766Z,24.80
2023-01-22T02:46:25.786Z,24.90
2023-01-22T02:48:53.576Z,24.90
2023-01-22T02:51:21.565Z,24.90
2023-01-22T02:53:50.426Z,24.90
2023-01-22T02:56:20.377Z,24.90
2023-01-22T02:58:48.032Z,24.90
2023-01-22T03:01:20.424Z,25.00
2023-01-22T03:03:51.390Z,25.00
2023-01-22T03:06:21.356Z,25.00
2023-01-22T03:08:49.203Z,25.00
2023-01-22T03:11:17.439Z,25.10
2023-01-22T03:14:04.141Z,25.00
2023-01-22T03:16:50.130Z,25.00
2023-01-22T03:19:35.382Z,25.10
2023-01-22T03:22:08.849Z,25.10
2023-01-22T03:24:36.549Z,25.10
2023-01-22T03:27:05.617Z,25.20
2023-01-22T03:29:38.364Z,25.20
2023-01-22T03:32:07.965Z,25.20
2023-01-22T03:34:37.850Z,25.20
2023-01-22T03:37:06.771Z,25.20
2023-01-22T03:39:34.800Z,25.20
2023-01-22T03:42:04.244Z,25.20
2023-01-22T03:44:31.908Z,25.20
2023-01-22T03:47:00.940Z,25.10
2023-01-22T03:49:29.132Z,25.10
2023-01-22T03:51:57.169Z,25.10
2023-01-22T03:54:26.715Z,25.10
2023-01-22T03:56:57.154Z,25.10
2023-01-22T03:59:30.343Z,25.00
2023-01-22T04:01:58.689Z,25.10
2023-01-22T04:04:27.943Z,25.00
2023-01-22T04:06:56.335Z,25.00
2023-01-22T04:09:24.220Z,25.00
2023-01-22T04:11:51.925Z,25.10
2023-01-22T04:14:19.889Z,25.00
2023-01-22T04:16:56.534Z,25.00
2023-01-22T04:19:42.082Z,24.90
2023-01-22T04:22:28.493Z,24.80
2023-01-22T04:24:58.351Z,24.80
2023-01-22T04:27:26.036Z,24.80
2023-01-22T04:29:55.671Z,24.80
2023-01-22T04:32:24.971Z,24.80
2023-01-22T04:35:20.673Z,24.80
2023-01-22T04:37:55.354Z,24.80
2023-01-22T04:40:23.912Z,24.70
2023-01-22T04:42:51.628Z,24.70
2023-01-22T04:45:19.298Z,24.70
2023-01-22T04:47:48.589Z,24.70
2023-01-22T04:50:22.476Z,24.70
2023-01-22T04:52:51.148Z,24.60
2023-01-22T04:55:18.835Z,24.60
2023-01-22T04:57:55.046Z,24.60
2023-01-22T05:00:23.020Z,24.60
2023-01-22T05:02:50.807Z,24.60
2023-01-22T05:05:18.761Z,24.60
2023-01-22T05:07:48.436Z,24.50
2023-01-22T05:10:17.193Z,24.50
2023-01-22T05:12:45.487Z,24.50
2023-01-22T05:15:23.558Z,24.50
2023-01-22T05:17:53.902Z,24.50
2023-01-22T05:20:21.907Z,24.40
2023-01-22T05:22:51.163Z,24.40
2023-01-22T05:25:23.247Z,24.40
2023-01-22T05:27:51.004Z,24.40
2023-01-22T05:30:32.599Z,24.40
2023-01-22T05:33:20.599Z,24.30
2023-01-22T05:35:56.706Z,24.30
2023-01-22T05:38:25.916Z,24.30
2023-01-22T05:40:54.025Z,24.30
2023-01-22T05:43:22.459Z,24.30
2023-01-22T05:46:01.292Z,24.30
2023-01-22T05:48:43.939Z,24.20
2023-01-22T05:51:19.328Z,24.20
2023-01-22T05:53:48.785Z,24.10
2023-01-22T05:56:16.807Z,24.10
2023-01-22T05:58:44.886Z,24.10
2023-01-22T06:01:13.131Z,24.00
2023-01-22T06:03:45.047Z,24.00
2023-01-22T06:06:16.066Z,24.00
2023-01-22T06:08:44.467Z,24.00
2023-01-22T06:11:14.688Z,23.90
2023-01-22T06:13:45.877Z,23.90
2023-01-22T06:16:20.680Z,23.90
2023-01-22T06:19:01.655Z,23.80
2023-01-22T06:21:35.207Z,23.80
2023-01-22T06:24:03.232Z,23.80
2023-01-22T06:26:34.102Z,23.80
2023-01-22T06:29:04.484Z,23.80
2023-01-22T06:31:32.362Z,23.80
2023-01-22T06:34:00.652Z,23.70
2023-01-22T06:36:28.545Z,23.70
2023-01-22T06:38:56.430Z,23.70
2023-01-22T06:41:37.965Z,23.60
2023-01-22T06:44:08.137Z,23.60
2023-01-22T06:46:35.892Z,23.60
2023-01-22T06:49:06.570Z,23.60
2023-01-22T06:51:34.311Z,23.60
2023-01-22T06:54:02.271Z,23.60
2023-01-22T06:56:30.062Z,23.60
2023-01-22T06:59:01.207Z,23.60
2023-01-22T07:01:29.004Z,23.50
2023-01-22T07:03:57.242Z,23.50
2023-01-22T07:06:24.995Z,23.50
2023-01-22T07:08:53.907Z,23.50
2023-01-22T07:11:21.587Z,23.40
2023-01-22T07:13:49.251Z,23.40
2023-01-22T07:16:18.285Z,23.40
2023-01-22T07:18:45.974Z,23.40
2023-01-22T07:21:13.725Z,23.30
2023-01-22T07:23:41.982Z,23.30
2023-01-22T07:26:09.627Z,23.30
2023-01-22T07:28:37.341Z,23.30
2023-01-22T07:31:05.259Z,23.30
2023-01-22T07:33:34.363Z,23.30
2023-01-22T07:36:02.120Z,23.20
2023-01-22T07:38:29.811Z,23.30
2023-01-22T07:41:01.564Z,23.20
2023-01-22T07:43:29.422Z,23.20
2023-01-22T07:45:57.909Z,23.20
2023-01-22T07:48:25.723Z,23.20
2023-01-22T07:50:54.751Z,23.20
2023-01-22T07:53:22.497Z,23.20
2023-01-22T07:55:50.153Z,23.10
2023-01-22T07:58:17.843Z,23.10
2023-01-22T08:00:45.569Z,23.10
2023-01-22T08:03:14.572Z,23.00
2023-01-22T08:05:42.549Z,23.00
2023-01-22T08:08:13.848Z,23.00
2023-01-22T08:10:41.552Z,23.10
2023-01-22T08:13:09.239Z,23.00
2023-01-22T08:15:36.928Z,23.00
2023-01-22T08:18:04.793Z,23.00
2023-01-22T08:20:32.482Z,23.00
2023-01-22T08:23:00.652Z,23.00
2023-01-22T08:25:29.849Z,23.00
2023-01-22T08:27:57.577Z,23.00
2023-01-22T08:30:25.302Z,23.00
2023-01-22T08:32:53.459Z,22.90
2023-01-22T08:35:21.687Z,22.90
2023-01-22T08:37:49.484Z,22.80
2023-01-22T08:40:17.757Z,22.80
2023-01-22T08:42:52.507Z,22.80
2023-01-22T08:45:20.283Z,22.80
2023-01-22T08:47:47.950Z,22.80
2023-01-22T08:50:16.502Z,22.80
2023-01-22T08:52:44.318Z,22.80
2023-01-22T08:55:12.013Z,22.80
2023-01-22T08:57:39.721Z,22.80
2023-01-22T09:00:11.172Z,22.80
2023-01-22T09:02:38.855Z,22.80
2023-01-22T09:05:07.519Z,22.80
2023-01-22T09:07:35.280Z,22.80
2023-01-22T09:10:04.089Z,23.00
2023-01-22T09:12:31.789Z,23.10
2023-01-22T09:14:59.456Z,23.30
2023-01-22T09:17:28.631Z,23.40
2023-01-22T09:19:56.291Z,23.50
2023-01-22T09:22:23.964Z,23.70
2023-01-22T09:24:51.642Z,23.80
2023-01-22T09:27:19.316Z,23.80
2023-01-22T09:29:46.962Z,23.90
2023-01-22T09:32:14.799Z,24.10
2023-01-22T09:34:43.812Z,24.10
2023-01-22T09:37:12.577Z,24.20
2023-01-22T09:39:40.238Z,24.30
2023-01-22T09:42:07.990Z,24.30
2023-01-22T09:44:38.651Z,24.30
2023-01-22T09:47:07.902Z,24.40
2023-01-22T09:49:39.046Z,24.50
2023-01-22T09:52:08.059Z,24.50
2023-01-22T09:54:35.891Z,24.50
2023-01-22T09:57:05.241Z,24.60
2023-01-22T09:59:36.614Z,24.50
2023-01-22T10:02:12.493Z,24.50
2023-01-22T10:04:42.424Z,24.50
2023-01-22T10:07:14.903Z,24.50
2023-01-22T10:09:51.937Z,24.40
2023-01-22T10:12:19.637Z,24.40
2023-01-22T10:14:47.304Z,24.40
2023-01-22T10:17:18.451Z,24.50
2023-01-22T10:19:47.727Z,24.60
2023-01-22T10:22:19.457Z,24.60
2023-01-22T10:24:47.139Z,24.70
2023-01-22T10:27:16.837Z,24.70
2023-01-22T10:29:44.931Z,24.70
2023-01-22T10:32:21.376Z,24.80
2023-01-22T10:34:59.675Z,24.80
2023-01-22T10:37:29.221Z,24.80
2023-01-22T10:39:58.392Z,24.80
2023-01-22T10:42:27.819Z,24.80
2023-01-22T10:44:56.518Z,24.80
2023-01-22T10:47:27.309Z,24.90
2023-01-22T10:50:06.663Z,24.90
2023-01-22T10:52:38.979Z,25.00
2023-01-22T10:55:07.374Z,25.00
2023-01-22T10:57:36.459Z,25.00
2023-01-22T11:00:21.981Z,25.00
2023-01-22T11:02:50.752Z,25.10
2023-01-22T11:05:19.629Z,25.00
2023-01-22T11:07:49.460Z,25.00
2023-01-22T11:10:20.023Z,25.10
2023-01-22T11:12:50.294Z,25.20
2023-01-22T11:15:21.733Z,25.20
2023-01-22T11:17:51.002Z,25.20
2023-01-22T11:20:23.009Z,25.10
2023-01-22T11:23:00.134Z,25.20
2023-01-22T11:25:28.367Z,25.20
2023-01-22T11:28:09.691Z,25.20
2023-01-22T11:30:57.632Z,25.20
2023-01-22T11:33:59.350Z,25.20
2023-01-22T11:36:28.149Z,25.20
2023-01-22T11:38:59.025Z,25.20
2023-01-22T11:41:47.444Z,25.30
2023-01-22T11:44:32.489Z,25.40
2023-01-22T11:47:10.854Z,25.40
2023-01-22T11:49:44.741Z,25.40
2023-01-22T11:52:19.761Z,25.40
2023-01-22T11:54:57.491Z,25.40
2023-01-22T11:57:27.580Z,25.40
2023-01-22T12:00:04.505Z,25.30
2023-01-22T12:02:43.312Z,25.40
2023-01-22T12:05:19.064Z,25.40
2023-01-22T12:07:52.685Z,25.40
2023-01-22T12:10:39.329Z,25.30
2023-01-22T12:13:11.141Z,25.40
2023-01-22T12:15:43.368Z,25.30
2023-01-22T12:18:34.497Z,25.30
2023-01-22T12:21:08.040Z,25.30
2023-01-22T12:23:37.351Z,25.20
2023-01-22T12:26:07.677Z,25.20
2023-01-22T12:28:41.389Z,25.20
2023-01-22T12:31:11.728Z,25.20
2023-01-22T12:33:41.850Z,25.20
2023-01-22T12:36:13.070Z,25.10
2023-01-22T12:38:43.398Z,25.10
2023-01-22T12:41:22.515Z,25.00
2023-01-22T12:43:52.114Z,25.00
2023-01-22T12:46:25.634Z,24.90
2023-01-22T12:48:58.457Z,24.90
2023-01-22T12:51:28.799Z,24.90
2023-01-22T12:53:56.526Z,24.80
2023-01-22T12:56:32.475Z,24.80
2023-01-22T12:59:00.381Z,24.80
2023-01-22T13:01:33.635Z,24.70
2023-01-22T13:04:02.197Z,24.70
2023-01-22T13:06:34.466Z,24.60
2023-01-22T13:09:02.304Z,24.60
2023-01-22T13:11:32.772Z,24.70
2023-01-22T13:14:15.020Z,24.60
2023-01-22T13:16:49.826Z,24.60
2023-01-22T13:19:20.218Z,24.50
2023-01-22T13:21:47.997Z,24.50
2023-01-22T13:24:17.223Z,24.40
2023-01-22T13:26:53.282Z,24.50
2023-01-22T13:29:26.742Z,24.50
2023-01-22T13:31:55.556Z,24.50
2023-01-22T13:34:23.623Z,24.50
2023-01-22T13:36:52.007Z,24.50
2023-01-22T13:39:21.403Z,24.50
2023-01-22T13:41:50.523Z,24.50
2023-01-22T13:44:21.015Z,24.50
2023-01-22T13:46:49.089Z,24.60
2023-01-22T13:49:20.867Z,24.60
2023-01-22T13:51:48.640Z,24.60
2023-01-22T13:54:20.111Z,24.70
2023-01-22T13:56:48.039Z,24.70
2023-01-22T13:59:22.003Z,24.70
2023-01-22T14:01:50.122Z,24.70
2023-01-22T14:04:36.931Z,24.60
2023-01-22T14:07:05.069Z,24.70
2023-01-22T14:09:33.773Z,24.70
2023-01-22T14:12:01.767Z,24.70
2023-01-22T14:14:39.687Z,24.60
2023-01-22T14:17:07.387Z,24.60
2023-01-22T14:19:35.179Z,24.60
2023-01-22T14:22:02.917Z,24.50
2023-01-22T14:24:30.661Z,24.50
2023-01-22T14:26:58.506Z,24.50
2023-01-22T14:29:26.280Z,24.50
2023-01-22T14:31:55.428Z,24.50
2023-01-22T14:34:23.137Z,24.50
2023-01-22T14:36:50.820Z,24.50
2023-01-22T14:39:19.163Z,24.50
2023-01-22T14:41:47.081Z,24.50
2023-01-22T14:44:14.795Z,24.50
2023-01-22T14:46:42.696Z,24.50
2023-01-22T14:49:11.681Z,24.50
2023-01-22T14:51:39.419Z,24.50
2023-01-22T14:54:07.267Z,24.50
2023-01-22T14:56:34.955Z,24.50
2023-01-22T14:59:04.250Z,24.50
2023-01-22T15:01:31.988Z,24.50
2023-01-22T15:04:01.245Z,24.60
2023-01-22T15:06:30.277Z,24.50
2023-01-22T15:08:58.012Z,24.50
2023-01-22T15:11:25.739Z,24.40
2023-01-22T15:13:55.434Z,24.40
2023-01-22T15:16:23.126Z,24.50
2023-01-22T15:18:54.036Z,24.50
2023-01-22T15:21:21.789Z,24.50
2023-01-22T15:23:50.976Z,24.50
2023-01-22T15:26:24.585Z,24.60
2023-01-22T15:28:52.310Z,24.60
2023-01-22T15:31:20.095Z,24.70
2023-01-22T15:33:47.868Z,24.60
2023-01-22T15:36:15.644Z,24.70
2023-01-22T15:38:43.386Z,24.70
2023-01-22T15:41:20.749Z,24.80
2023-01-22T15:43:50.829Z,24.80
2023-01-22T15:46:18.999Z,24.80
2023-01-22T15:48:46.722Z,24.80
2023-01-22T15:51:15.425Z,24.80
2023-01-22T15:53:43.686Z,24.80
2023-01-22T15:56:11.397Z,24.80
2023-01-22T15:58:40.446Z,24.70
2023-01-22T16:01:08.244Z,24.70
2023-01-22T16:03:35.987Z,24.70
2023-01-22T16:06:10.968Z,24.70
2023-01-22T16:08:38.769Z,24.70
2023-01-22T16:11:06.499Z,24.70
2023-01-22T16:13:34.468Z,24.70
2023-01-22T16:16:05.856Z,24.70
2023-01-22T16:18:33.991Z,24.70
2023-01-22T16:21:02.477Z,24.60
2023-01-22T16:23:30.634Z,24.60
2023-01-22T16:25:58.798Z,24.60
2023-01-22T16:28:26.533Z,24.60
2023-01-22T16:30:54.462Z,24.40
2023-01-22T16:33:25.820Z,24.50
2023-01-22T16:36:04.836Z,24.40
2023-01-22T16:38:32.660Z,24.30
2023-01-22T16:41:24.163Z,24.20
2023-01-22T16:43:53.827Z,24.20
2023-01-22T16:46:23.662Z,24.10
2023-01-22T16:48:57.898Z,24.00
2023-01-22T16:51:26.766Z,24.00
2023-01-22T16:53:54.595Z,23.90
2023-01-22T16:56:22.396Z,23.80
2023-01-22T16:58:50.111Z,23.80
2023-01-22T17:01:17.830Z,23.80
2023-01-22T17:03:45.607Z,23.70
2023-01-22T17:06:25.828Z,23.70
2023-01-22T17:08:53.730Z,23.60
2023-01-22T17:11:21.501Z,23.50
2023-01-22T17:13:49.484Z,23.50
2023-01-22T17:16:17.199Z,23.40
2023-01-22T17:18:44.907Z,23.40
2023-01-22T17:21:14.034Z,23.30
2023-01-22T17:23:43.190Z,23.30
2023-01-22T17:26:15.138Z,23.20
2023-01-22T17:28:43.027Z,23.20
2023-01-22T17:31:12.179Z,23.20
2023-01-22T17:33:39.991Z,23.10
2023-01-22T17:36:08.870Z,23.10
2023-01-22T17:38:38.614Z,23.10
2023-01-22T17:41:09.785Z,23.00
2023-01-22T17:43:38.614Z,23.00
2023-01-22T17:46:10.880Z,22.90
2023-01-22T17:48:38.796Z,22.90
2023-01-22T17:51:07.695Z,22.80
2023-01-22T17:53:36.606Z,22.80
2023-01-22T17:56:10.569Z,22.80
2023-01-22T17:58:38.509Z,22.80
2023-01-22T18:01:07.494Z,22.70
2023-01-22T18:03:35.340Z,22.70
2023-01-22T18:06:03.243Z,22.70
2023-01-22T18:08:31.386Z,22.60
2023-01-22T18:10:59.334Z,22.60
2023-01-22T18:13:28.735Z,22.60
2023-01-22T18:15:56.550Z,22.50
2023-01-22T18:18:24.317Z,22.50
2023-01-22T18:20:52.041Z,22.50
2023-01-22T18:23:19.776Z,22.50
2023-01-22T18:25:50.252Z,22.50
2023-01-22T18:28:18.720Z,22.40
2023-01-22T18:30:48.018Z,22.40
2023-01-22T18:33:18.880Z,22.40
2023-01-22T18:35:47.151Z,22.40
2023-01-22T18:38:14.961Z,22.40
2023-01-22T18:40:42.677Z,22.30
2023-01-22T18:43:11.272Z,22.30
2023-01-22T18:45:41.159Z,22.30
2023-01-22T18:48:11.299Z,22.30
2023-01-22T18:50:39.091Z,22.30
2023-01-22T18:53:07.071Z,22.20
2023-01-22T18:55:35.048Z,22.20
2023-01-22T18:58:06.364Z,22.10
2023-01-22T19:00:34.224Z,22.10
2023-01-22T19:03:02.065Z,22.10
2023-01-22T19:05:31.071Z,22.10
2023-01-22T19:07:59.052Z,22.10
2023-01-22T19:10:27.963Z,22.10
2023-01-22T19:12:55.648Z,22.00
2023-01-22T19:15:24.579Z,22.00
2023-01-22T19:17:52.684Z,22.00
2023-01-22T19:20:20.386Z,21.90
2023-01-22T19:22:49.405Z,22.00
2023-01-22T19:25:17.378Z,21.90
2023-01-22T19:27:45.344Z,21.90
2023-01-22T19:30:13.482Z,21.90
2023-01-22T19:32:41.209Z,21.90
2023-01-22T19:35:09.908Z,21.90
2023-01-22T19:37:37.703Z,21.90
2023-01-22T19:40:08.925Z,21.80
2023-01-22T19:42:36.653Z,21.80
2023-01-22T19:45:04.874Z,21.80
2023-01-22T19:47:32.579Z,21.80
2023-01-22T19:50:00.284Z,21.80
2023-01-22T19:52:28.415Z,21.80
2023-01-22T19:54:56.073Z,21.80
2023-01-22T19:57:25.072Z,21.70
2023-01-22T19:59:53.326Z,21.70
2023-01-22T20:02:22.076Z,21.70
2023-01-22T20:04:49.741Z,21.70
2023-01-22T20:07:17.413Z,21.70
2023-01-22T20:09:45.097Z,21.60
2023-01-22T20:12:12.797Z,21.60
2023-01-22T20:14:43.674Z,21.60
2023-01-22T20:17:12.854Z,21.60
2023-01-22T20:19:42.069Z,21.60
2023-01-22T20:22:10.719Z,21.60
2023-01-22T20:24:39.713Z,21.60
2023-01-22T20:27:07.812Z,21.60
2023-01-22T20:29:35.640Z,21.50
2023-01-22T20:32:04.890Z,21.50
2023-01-22T20:34:32.589Z,21.50
2023-01-22T20:37:00.292Z,21.50
2023-01-22T20:39:27.987Z,21.50
2023-01-22T20:41:55.657Z,21.50
2023-01-22T20:44:23.624Z,21.50
2023-01-22T20:46:51.437Z,21.50
2023-01-22T20:49:20.584Z,21.40
2023-01-22T20:51:48.270Z,21.40
2023-01-22T20:54:15.985Z,21.40
2023-01-22T20:56:43.709Z,21.40
2023-01-22T20:59:12.769Z,21.40
2023-01-22T21:01:40.531Z,21.40
2023-01-22T21:04:08.244Z,21.40
2023-01-22T21:06:37.398Z,21.40
2023-01-22T21:09:05.138Z,21.30
2023-01-22T21:11:33.580Z,21.40
2023-01-22T21:14:01.859Z,21.40
2023-01-22T21:16:30.542Z,21.30
2023-01-22T21:18:59.482Z,21.30
2023-01-22T21:21:27.307Z,21.30
2023-01-22T21:23:56.535Z,21.30
2023-01-22T21:26:25.458Z,21.30
2023-01-22T21:28:54.770Z,21.30
2023-01-22T21:31:22.888Z,21.20
2023-01-22T21:33:52.434Z,21.20
2023-01-22T21:36:20.429Z,21.20
2023-01-22T21:38:48.361Z,21.20
2023-01-22T21:41:18.504Z,21.20
2023-01-22T21:44:05.713Z,21.20
2023-01-22T21:46:34.797Z,21.20
2023-01-22T21:49:16.024Z,21.10
2023-01-22T21:51:45.060Z,21.10
2023-01-22T21:54:13.577Z,21.10
2023-01-22T21:56:42.668Z,21.10
2023-01-22T21:59:10.605Z,21.10
2023-01-22T22:01:38.511Z,21.10
2023-01-22T22:04:06.637Z,21.10
2023-01-22T22:06:34.640Z,21.10
2023-01-22T22:09:03.892Z,21.10
2023-01-22T22:11:31.590Z,21.10
2023-01-22T22:14:00.645Z,21.00
2023-01-22T22:16:28.382Z,21.00
2023-01-22T22:18:56.654Z,21.00
2023-01-22T22:21:24.399Z,21.00
2023-01-22T22:23:52.163Z,21.00
2023-01-22T22:26:19.840Z,21.00
2023-01-22T22:28:47.580Z,20.90
2023-01-22T22:31:16.789Z,20.90
2023-01-22T22:33:46.182Z,20.90
2023-01-22T22:36:14.879Z,20.90
2023-01-22T22:38:42.677Z,20.90
2023-01-22T22:41:12.935Z,20.90
2023-01-22T22:43:44.089Z,20.90
2023-01-22T22:46:13.295Z,20.80
2023-01-22T22:48:42.382Z,20.80
2023-01-22T22:51:11.356Z,20.80
2023-01-22T22:53:39.096Z,20.80
2023-01-22T22:56:07.722Z,20.80
2023-01-22T22:58:35.414Z,20.80
2023-01-22T23:01:07.336Z,20.80
2023-01-22T23:03:36.892Z,20.80
2023-01-22T23:06:08.218Z,20.70
2023-01-22T23:08:37.033Z,20.70
2023-01-22T23:11:05.568Z,20.70
2023-01-22T23:13:33.229Z,20.70
2023-01-22T23:16:01.903Z,20.70
2023-01-22T23:18:30.028Z,20.70
2023-01-22T23:20:57.677Z,20.70
2023-01-22T23:23:26.671Z,20.70
2023-01-22T23:25:54.320Z,20.70
2023-01-22T23:28:21.987Z,20.70
2023-01-22T23:30:50.376Z,20.70
2023-01-22T23:33:18.169Z,20.60
2023-01-22T23:35:45.872Z,20.60
2023-01-22T23:38:13.617Z,20.60
2023-01-22T23:40:42.623Z,20.60
2023-01-22T23:43:11.104Z,20.60
2023-01-22T23:45:39.239Z,20.60
2023-01-22T23:48:07.328Z,20.60
2023-01-22T23:50:34.983Z,20.60
2023-01-22T23:53:02.613Z,20.50
2023-01-22T23:55:32.060Z,20.50
2023-01-22T23:58:01.258Z,20.50
